Time;durP1;ratioP1;P1;durP2;ratioP2;P2;SDS_P1;SDS_P2;PMS_P1;PMS_P2;Temp;Humidity;BMP_temperature;BMP_pressure;BME280_temperature;BME280_humidity;BME280_pressure;Samples;Min_cycle;Max_cycle;Signal;HPM_P1;HPM_P2
2021/07/18 00:03:26;;;;;;;6.22;2.90;;;;;16.80;102029.00;;;;10424395;28;20539;-75
2021/07/18 00:08:28;;;;;;;12.48;3.72;;;;;16.80;102029.00;;;;10441444;28;20186;-75
2021/07/18 00:13:30;;;;;;;4.28;2.67;;;;;16.70;102029.00;;;;10424357;28;20592;-75
2021/07/18 00:18:32;;;;;;;4.15;2.83;;;;;16.70;102028.00;;;;10424028;28;20186;-75
2021/07/18 00:23:34;;;;;;;5.07;3.75;;;;;16.60;102022.00;;;;10469889;28;20254;-75
2021/07/18 00:28:36;;;;;;;5.03;3.42;;;;;16.50;102023.00;;;;10449017;28;20185;-75
2021/07/18 00:33:38;;;;;;;7.23;3.53;;;;;16.50;102016.00;;;;10467215;28;20577;-75
2021/07/18 00:38:40;;;;;;;6.93;3.53;;;;;16.40;102018.00;;;;10440459;28;20195;-75
2021/07/18 00:43:41;;;;;;;4.50;3.47;;;;;16.30;102027.00;;;;10423478;28;20279;-75
2021/07/18 00:48:43;;;;;;;5.20;3.30;;;;;16.20;102023.00;;;;10405944;28;20220;-75
2021/07/18 00:53:46;;;;;;;6.85;3.42;;;;;16.10;102017.00;;;;10436387;28;20779;-75
2021/07/18 00:58:53;;;;;;;6.73;3.77;;;;;15.90;102012.00;;;;10447681;28;20215;-75
2021/07/18 01:03:55;;;;;;;6.60;3.20;;;;;15.80;102011.00;;;;10464629;28;20216;-75
2021/07/18 01:08:57;;;;;;;6.40;3.60;;;;;15.70;102004.00;;;;10480288;28;20692;-75
2021/07/18 01:13:59;;;;;;;6.13;4.10;;;;;15.50;102005.00;;;;10464017;28;20174;-75
2021/07/18 01:19:02;;;;;;;4.73;4.10;;;;;15.40;101994.00;;;;10447413;28;20239;-75
2021/07/18 01:24:04;;;;;;;7.63;5.03;;;;;15.30;101987.00;;;;10431084;28;20260;-75
2021/07/18 01:29:06;;;;;;;6.00;4.30;;;;;15.30;101996.00;;;;10437951;28;20199;-75
2021/07/18 01:34:08;;;;;;;5.90;4.07;;;;;15.20;101983.00;;;;10438211;28;20731;-75
2021/07/18 01:39:11;;;;;;;5.03;4.03;;;;;15.10;101977.00;;;;10421870;28;20726;-75
2021/07/18 01:44:12;;;;;;;6.67;4.50;;;;;15.10;101972.00;;;;10421388;28;20685;-75
2021/07/18 01:49:14;;;;;;;6.47;4.80;;;;;15.00;101974.00;;;;10421348;28;20637;-75
2021/07/18 01:54:17;;;;;;;7.57;4.33;;;;;15.00;101967.00;;;;10422661;28;20197;-75
2021/07/18 01:59:18;;;;;;;9.27;4.83;;;;;14.90;101960.00;;;;10462766;28;20193;-75
2021/07/18 02:04:20;;;;;;;10.57;4.37;;;;;14.90;101971.00;;;;10438162;28;20213;-75
2021/07/18 02:09:22;;;;;;;6.70;4.77;;;;;14.80;101957.00;;;;10470915;28;20223;-75
2021/07/18 02:14:24;;;;;;;8.93;5.00;;;;;14.80;101952.00;;;;10437999;28;20194;-75
2021/07/18 02:19:29;;;;;;;9.83;5.50;;;;;14.70;101959.00;;;;10487021;28;20190;-75
2021/07/18 02:24:31;;;;;;;6.87;4.77;;;;;14.70;101958.00;;;;10450693;28;20214;-75
2021/07/18 02:29:34;;;;;;;10.33;4.90;;;;;14.70;101959.00;;;;10428855;28;20198;-75
2021/07/18 02:34:35;;;;;;;9.37;5.57;;;;;14.60;101955.00;;;;10445681;28;20210;-75
2021/07/18 02:39:37;;;;;;;7.97;5.37;;;;;14.60;101957.00;;;;10428166;28;20650;-75
2021/07/18 02:44:39;;;;;;;9.20;5.70;;;;;14.50;101955.00;;;;10444957;28;20616;-75
2021/07/18 02:49:41;;;;;;;7.53;5.43;;;;;14.50;101938.00;;;;10428555;28;20198;-75
2021/07/18 02:54:43;;;;;;;7.97;4.83;;;;;14.50;101950.00;;;;10449025;28;20665;-74
2021/07/18 02:59:45;;;;;;;9.13;5.47;;;;;14.40;101948.00;;;;10469272;28;20189;-75
2021/07/18 03:04:47;;;;;;;8.53;5.40;;;;;14.40;101951.00;;;;10485498;28;20206;-75
2021/07/18 03:09:49;;;;;;;9.87;6.13;;;;;14.30;101941.00;;;;10484949;28;20194;-75
2021/07/18 03:14:51;;;;;;;7.77;5.73;;;;;14.30;101941.00;;;;10484429;28;20231;-75
2021/07/18 03:19:53;;;;;;;9.27;5.40;;;;;14.20;101937.00;;;;10467770;28;20229;-75
2021/07/18 03:24:54;;;;;;;6.77;5.10;;;;;14.20;101938.00;;;;10428335;28;20224;-75
2021/07/18 03:29:56;;;;;;;7.20;6.27;;;;;14.10;101929.00;;;;10410410;28;20190;-75
2021/07/18 03:34:59;;;;;;;10.53;6.70;;;;;14.10;101933.00;;;;10426441;28;20264;-75
2021/07/18 03:40:04;;;;;;;7.27;5.53;;;;;14.10;101931.00;;;;10393574;28;20202;-75
2021/07/18 03:45:07;;;;;;;8.03;5.87;;;;;14.10;101935.00;;;;10442326;28;20216;-75
2021/07/18 03:50:10;;;;;;;7.50;5.10;;;;;14.10;101929.00;;;;10467018;28;20656;-75
2021/07/18 03:55:13;;;;;;;8.47;5.43;;;;;14.00;101934.00;;;;10427157;28;20283;-75
2021/07/18 04:00:16;;;;;;;7.70;5.83;;;;;14.00;101937.00;;;;10409085;28;20224;-75
2021/07/18 04:05:18;;;;;;;8.37;5.13;;;;;14.00;101938.00;;;;10408842;28;20210;-75
2021/07/18 04:10:20;;;;;;;7.77;5.43;;;;;14.00;101925.00;;;;10408654;28;20240;-75
2021/07/18 04:15:22;;;;;;;8.30;5.93;;;;;14.00;101928.00;;;;10424601;28;20186;-75
2021/07/18 04:20:24;;;;;;;9.57;6.60;;;;;14.10;101934.00;;;;10441274;28;20217;-76
2021/07/18 04:25:26;;;;;;;9.80;6.50;;;;;14.30;101939.00;;;;10423232;28;20210;-75
2021/07/18 04:30:27;;;;;;;8.37;6.00;;;;;14.50;101941.00;;;;10440604;28;20194;-75
2021/07/18 04:35:30;;;;;;;13.00;6.30;;;;;14.60;101939.00;;;;10440560;28;20681;-75
2021/07/18 04:40:32;;;;;;;12.63;6.83;;;;;14.70;101943.00;;;;10439861;28;20205;-75
2021/07/18 04:45:34;;;;;;;13.27;7.20;;;;;14.90;101957.00;;;;10407370;28;20218;-75
2021/07/18 04:50:36;;;;;;;11.70;7.00;;;;;15.00;101954.00;;;;10440026;28;20240;-75
2021/07/18 04:55:38;;;;;;;11.50;7.90;;;;;15.20;101949.00;;;;10407025;28;20190;-75
2021/07/18 05:00:40;;;;;;;10.57;7.73;;;;;15.40;101958.00;;;;10423550;28;20194;-75
2021/07/18 05:05:42;;;;;;;11.37;8.43;;;;;15.70;101968.00;;;;10423356;28;20222;-75
2021/07/18 05:10:44;;;;;;;13.33;8.70;;;;;16.10;101971.00;;;;10406419;28;20199;-75
2021/07/18 05:15:45;;;;;;;12.83;7.80;;;;;16.40;101981.00;;;;10439470;28;20187;-75
2021/07/18 05:20:47;;;;;;;18.10;8.50;;;;;16.70;101975.00;;;;10422279;28;20263;-75
2021/07/18 05:25:49;;;;;;;10.77;7.45;;;;;17.00;101972.00;;;;10469134;28;20217;-75
2021/07/18 05:30:51;;;;;;;10.43;8.82;;;;;17.30;101982.00;;;;10447058;28;20190;-76
2021/07/18 05:35:53;;;;;;;12.60;9.88;;;;;17.70;101994.00;;;;10430301;28;20237;-75
2021/07/18 05:40:55;;;;;;;11.48;9.38;;;;;18.00;101994.00;;;;10438495;28;20198;-75
2021/07/18 05:45:57;;;;;;;12.75;9.50;;;;;18.30;102004.00;;;;10421765;28;20558;-75
2021/07/18 05:50:59;;;;;;;12.18;9.07;;;;;18.90;102013.00;;;;10438426;28;20232;-75
2021/07/18 05:56:01;;;;;;;10.50;8.43;;;;;19.60;102014.00;;;;10454714;28;20557;-75
2021/07/18 06:01:03;;;;;;;13.18;7.78;;;;;19.80;102021.00;;;;10446875;28;20868;-76
2021/07/18 06:06:05;;;;;;;9.90;7.00;;;;;20.00;102030.00;;;;10462749;28;20296;-75
2021/07/18 06:11:08;;;;;;;9.15;6.70;;;;;20.60;102032.00;;;;10432661;28;20205;-75
2021/07/18 06:16:09;;;;;;;11.60;6.15;;;;;21.10;102030.00;;;;10437653;28;20194;-75
2021/07/18 06:21:12;;;;;;;8.80;5.63;;;;;21.50;102031.00;;;;10404808;28;20710;-76
2021/07/18 06:26:14;;;;;;;7.40;5.15;;;;;21.70;102030.00;;;;10433786;28;20214;-75
2021/07/18 06:31:16;;;;;;;6.40;5.45;;;;;22.10;102025.00;;;;10407312;28;20209;-75
2021/07/18 06:36:18;;;;;;;7.85;4.38;;;;;22.60;102024.00;;;;10454710;28;20220;-76
2021/07/18 06:41:20;;;;;;;5.55;4.00;;;;;22.90;102017.00;;;;10462083;28;20217;-76
2021/07/18 06:46:22;;;;;;;6.30;4.07;;;;;23.20;102020.00;;;;10455780;28;20226;-75
2021/07/18 06:51:24;;;;;;;9.05;3.60;;;;;23.50;102013.00;;;;10428039;28;20208;-75
2021/07/18 06:56:27;;;;;;;6.47;4.13;;;;;23.90;102017.00;;;;10428097;28;20186;-75
2021/07/18 07:01:29;;;;;;;6.38;4.05;;;;;24.30;102014.00;;;;10461874;28;20191;-75
2021/07/18 07:06:31;;;;;;;4.75;3.10;;;;;24.70;102015.00;;;;10443634;28;20202;-75
2021/07/18 07:11:33;;;;;;;4.40;3.25;;;;;25.00;102003.00;;;;10444866;28;20209;-75
2021/07/18 07:16:36;;;;;;;5.03;2.67;;;;;25.30;102005.00;;;;10463092;28;20186;-75
2021/07/18 07:21:38;;;;;;;2.60;2.13;;;;;25.80;102008.00;;;;10484519;28;20216;-75
2021/07/18 07:26:40;;;;;;;4.47;2.17;;;;;26.20;102010.00;;;;10442737;28;20210;-75
2021/07/18 07:31:42;;;;;;;2.83;1.83;;;;;26.40;102005.00;;;;10426501;28;20210;-75
2021/07/18 07:36:44;;;;;;;3.60;1.83;;;;;26.50;101992.00;;;;10456299;28;20193;-76
2021/07/18 07:41:46;;;;;;;4.15;2.08;;;;;26.90;101995.00;;;;10467245;28;20182;-76
2021/07/18 07:46:48;;;;;;;6.05;2.28;;;;;26.90;101989.00;;;;10483147;28;20217;-75
2021/07/18 07:51:50;;;;;;;2.38;1.75;;;;;27.30;101999.00;;;;10501312;28;20821;-76
2021/07/18 07:56:51;;;;;;;2.80;1.52;;;;;27.80;101998.00;;;;10441592;28;20206;-76
2021/07/18 08:01:53;;;;;;;2.35;1.63;;;;;27.90;101990.00;;;;10425209;28;20243;-76
2021/07/18 08:06:56;;;;;;;4.68;1.65;;;;;27.90;101989.00;;;;10425024;28;20213;-76
2021/07/18 08:11:58;;;;;;;4.10;2.15;;;;;28.10;101985.00;;;;10455753;28;20247;-76
2021/07/18 08:17:02;;;;;;;2.78;1.60;;;;;28.40;101985.00;;;;10465725;28;20657;-76
2021/07/18 08:22:05;;;;;;;4.50;1.60;;;;;28.60;101979.00;;;;10460044;28;20247;-76
2021/07/18 08:27:06;;;;;;;2.08;1.55;;;;;28.80;101983.00;;;;10440986;28;20220;-76
2021/07/18 08:32:08;;;;;;;1.88;1.25;;;;;29.10;101975.00;;;;10439380;28;20232;-76
2021/07/18 08:37:10;;;;;;;2.15;1.38;;;;;29.60;101970.00;;;;10442803;28;20264;-76
2021/07/18 08:42:15;;;;;;;1.98;1.27;;;;;29.80;101962.00;;;;10461094;28;20197;-76
2021/07/18 08:47:20;;;;;;;2.30;1.30;;;;;30.10;101964.00;;;;10464548;28;20236;-76
2021/07/18 08:52:24;;;;;;;4.82;1.60;;;;;30.20;101954.00;;;;10468239;28;20260;-76
2021/07/18 08:57:26;;;;;;;2.47;1.30;;;;;30.40;101963.00;;;;10489633;28;20644;-76
2021/07/18 09:02:28;;;;;;;1.60;1.40;;;;;30.50;101951.00;;;;10450764;28;20248;-76
2021/07/18 09:07:41;;;;;;;1.95;1.10;;;;;30.10;101953.00;;;;10422996;28;20305;-76
2021/07/18 09:13:01;;;;;;;2.67;1.80;;;;;29.90;101944.00;;;;10465941;28;20190;-76
2021/07/18 09:18:23;;;;;;;3.30;1.20;;;;;30.40;101946.00;;;;10456785;28;20183;-76
2021/07/18 09:23:29;;;;;;;4.95;1.42;;;;;30.70;101958.00;;;;10438771;28;20190;-76
2021/07/18 09:28:32;;;;;;;4.30;1.50;;;;;31.10;101948.00;;;;10454632;28;20243;-76
2021/07/18 09:33:34;;;;;;;2.05;1.40;;;;;31.30;101947.00;;;;10468218;28;20214;-76
2021/07/18 09:38:36;;;;;;;3.10;1.60;;;;;31.40;101949.00;;;;10455529;28;20205;-76
2021/07/18 09:43:38;;;;;;;2.63;1.65;;;;;31.30;101951.00;;;;10446804;28;20248;-76
2021/07/18 09:48:46;;;;;;;3.95;1.58;;;;;31.70;101947.00;;;;10446605;28;20200;-76
2021/07/18 09:54:08;;;;;;;1.55;1.40;;;;;31.60;101945.00;;;;10457907;28;20663;-76
2021/07/18 09:59:10;;;;;;;3.42;1.70;;;;;31.60;101939.00;;;;10438025;28;20653;-76
2021/07/18 10:04:19;;;;;;;2.45;1.77;;;;;31.50;101934.00;;;;10479236;28;20680;-76
2021/07/18 10:09:21;;;;;;;3.22;1.85;;;;;31.20;101935.00;;;;10447713;28;20210;-76
2021/07/18 10:14:23;;;;;;;3.15;1.67;;;;;31.70;101928.00;;;;10437781;28;20625;-76
2021/07/18 10:19:25;;;;;;;2.40;1.75;;;;;31.30;101929.00;;;;10421401;28;20229;-76
2021/07/18 10:24:29;;;;;;;3.10;1.90;;;;;32.00;101930.00;;;;10433914;28;20270;-76
2021/07/18 10:29:32;;;;;;;1.90;1.67;;;;;32.00;101922.00;;;;10470128;28;20706;-76
2021/07/18 10:34:35;;;;;;;2.53;2.00;;;;;32.20;101916.00;;;;10486078;28;20758;-76
2021/07/18 10:39:40;;;;;;;1.90;1.65;;;;;31.60;101906.00;;;;10476443;28;20244;-76
2021/07/18 10:44:50;;;;;;;4.57;2.15;;;;;32.00;101910.00;;;;10444744;28;20581;-76
2021/07/18 10:49:54;;;;;;;2.83;2.30;;;;;31.60;101916.00;;;;10457003;28;20198;-76
2021/07/18 10:54:57;;;;;;;4.20;2.85;;;;;32.00;101912.00;;;;10467094;28;20189;-76
2021/07/18 11:00:22;;;;;;;3.15;2.53;;;;;32.50;101909.00;;;;10451152;28;20645;-76
2021/07/18 11:05:38;;;;;;;2.85;2.17;;;;;32.50;101903.00;;;;10411072;28;20219;-76
2021/07/18 11:10:48;;;;;;;4.15;3.78;;;;;32.60;101900.00;;;;10436692;28;20201;-76
2021/07/18 11:15:51;;;;;;;5.43;3.70;;;;;32.80;101896.00;;;;10468819;28;20194;-76
2021/07/18 11:20:54;;;;;;;2.45;2.25;;;;;33.40;101889.00;;;;10497366;28;20284;-76
2021/07/18 11:26:02;;;;;;;3.22;2.53;;;;;33.70;101885.00;;;;10485013;28;20202;-76
2021/07/18 11:31:10;;;;;;;5.93;2.70;;;;;33.20;101885.00;;;;10461983;28;20202;-76
2021/07/18 11:36:14;;;;;;;3.38;3.08;;;;;33.20;101888.00;;;;10442317;28;20621;-76
2021/07/18 11:41:21;;;;;;;6.05;3.53;;;;;32.90;101875.00;;;;10442803;28;20194;-76
2021/07/18 11:46:25;;;;;;;5.18;3.80;;;;;33.00;101878.00;;;;10469491;28;20217;-76
2021/07/18 11:51:34;;;;;;;6.72;4.13;;;;;33.00;101872.00;;;;10468145;28;20238;-76
2021/07/18 11:56:39;;;;;;;6.05;3.92;;;;;32.90;101870.00;;;;10465438;28;20190;-77
2021/07/18 12:01:43;;;;;;;7.65;4.38;;;;;32.00;101861.00;;;;10460964;28;20240;-77
2021/07/18 12:06:46;;;;;;;5.53;3.45;;;;;32.10;101860.00;;;;10425311;28;20572;-76
2021/07/18 12:11:51;;;;;;;5.90;4.07;;;;;31.90;101864.00;;;;10459449;28;20711;-76
2021/07/18 12:16:55;;;;;;;4.45;3.92;;;;;32.60;101850.00;;;;10459497;28;20190;-76
2021/07/18 12:21:59;;;;;;;4.95;3.42;;;;;32.60;101853.00;;;;10441726;28;20605;-76
2021/07/18 12:27:19;;;;;;;7.10;3.47;;;;;32.60;101847.00;;;;10464608;28;20248;-76
2021/07/18 12:32:25;;;;;;;6.78;4.50;;;;;32.20;101845.00;;;;10465717;28;20699;-76
2021/07/18 12:37:32;;;;;;;5.53;3.60;;;;;31.90;101827.00;;;;10447187;28;20198;-76
2021/07/18 12:42:44;;;;;;;8.55;4.03;;;;;32.30;101831.00;;;;10440505;28;20680;-76
2021/07/18 12:47:48;;;;;;;6.88;3.75;;;;;32.60;101833.00;;;;10438822;28;20244;-76
2021/07/18 12:52:53;;;;;;;5.03;3.72;;;;;32.90;101829.00;;;;10448900;28;20193;-76
2021/07/18 12:57:55;;;;;;;11.07;4.00;;;;;32.70;101830.00;;;;10464351;28;20194;-76
2021/07/18 13:03:11;;;;;;;6.65;4.70;;;;;33.10;101820.00;;;;10481143;28;20243;-76
2021/07/18 13:08:46;;;;;;;4.20;3.22;;;;;32.50;101813.00;;;;10464270;28;20575;-76
2021/07/18 13:13:48;;;;;;;5.45;3.63;;;;;32.30;101811.00;;;;10481191;28;20194;-76
2021/07/18 13:18:50;;;;;;;3.55;2.67;;;;;32.00;101815.00;;;;10423248;28;20623;-76
2021/07/18 13:23:52;;;;;;;2.92;2.72;;;;;31.40;101804.00;;;;10423168;28;20201;-77
2021/07/18 13:29:21;;;;;;;4.68;3.03;;;;;31.50;101805.00;;;;10422934;28;20197;-76
2021/07/18 13:34:23;;;;;;;6.68;2.83;;;;;31.40;101795.00;;;;10430019;28;20260;-77
2021/07/18 13:39:28;;;;;;;3.63;2.75;;;;;31.60;101792.00;;;;10423135;28;20190;-77
2021/07/18 13:44:30;;;;;;;3.78;2.30;;;;;32.10;101799.00;;;;10433854;28;20221;-77
2021/07/18 13:49:32;;;;;;;4.60;2.63;;;;;33.00;101798.00;;;;10447192;28;20243;-77
2021/07/18 13:54:34;;;;;;;3.33;2.25;;;;;33.90;101794.00;;;;10469057;28;20595;-76
2021/07/18 13:59:36;;;;;;;4.18;2.80;;;;;35.30;101800.00;;;;10517580;28;20196;-76
2021/07/18 14:04:38;;;;;;;3.05;2.65;;;;;36.60;101797.00;;;;10519044;28;20201;-76
2021/07/18 14:09:40;;;;;;;5.82;3.53;;;;;37.10;101795.00;;;;10552982;28;20965;-77
2021/07/18 14:14:46;;;;;;;3.55;2.60;;;;;37.40;101798.00;;;;10518887;28;20192;-76
2021/07/18 14:19:48;;;;;;;4.43;2.90;;;;;37.50;101788.00;;;;10535689;28;20197;-76
2021/07/18 14:24:50;;;;;;;3.30;2.60;;;;;38.20;101794.00;;;;10495817;28;20213;-77
2021/07/18 14:29:52;;;;;;;3.15;2.35;;;;;38.40;101790.00;;;;10461032;28;20660;-76
2021/07/18 14:34:54;;;;;;;5.28;2.47;;;;;38.30;101780.00;;;;10451820;28;20554;-77
2021/07/18 14:39:58;;;;;;;2.70;2.45;;;;;38.30;101787.00;;;;10451726;28;20661;-76
2021/07/18 14:44:59;;;;;;;2.92;2.55;;;;;39.20;101780.00;;;;10402762;28;20252;-76
2021/07/18 14:50:03;;;;;;;4.00;2.53;;;;;39.60;101776.00;;;;10451825;28;20174;-76
2021/07/18 14:55:06;;;;;;;3.47;2.83;;;;;39.10;101768.00;;;;10459246;28;20269;-77
2021/07/18 15:00:11;;;;;;;4.82;2.92;;;;;39.10;101778.00;;;;10492373;28;20190;-76
2021/07/18 15:05:15;;;;;;;3.33;2.75;;;;;40.30;101769.00;;;;10476350;28;20214;-77
2021/07/18 15:10:17;;;;;;;32.67;29.30;;;;;40.60;101765.00;;;;10486426;28;20190;-76
2021/07/18 15:15:20;;;;;;;6.32;5.82;;;;;40.80;101762.00;;;;10485326;28;20193;-77
2021/07/18 15:20:24;;;;;;;3.53;3.22;;;;;40.40;101757.00;;;;10484898;28;20194;-76
2021/07/18 15:25:25;;;;;;;4.63;2.78;;;;;41.20;101750.00;;;;10428701;28;20222;-76
2021/07/18 15:30:27;;;;;;;2.92;2.60;;;;;40.90;101738.00;;;;10444035;28;20194;-77
2021/07/18 15:35:29;;;;;;;4.20;3.00;;;;;40.10;101732.00;;;;10460523;28;20252;-77
2021/07/18 15:40:31;;;;;;;3.88;2.58;;;;;40.20;101737.00;;;;10427692;28;20264;-76
2021/07/18 15:45:33;;;;;;;3.20;2.67;;;;;39.90;101734.00;;;;10426655;28;20229;-77
2021/07/18 15:50:36;;;;;;;14.93;10.75;;;;;37.00;101740.00;;;;10443517;28;20202;-76
2021/07/18 15:55:38;;;;;;;11.57;10.15;;;;;32.70;101739.00;;;;10444751;28;20201;-76
2021/07/18 16:00:41;;;;;;;7.05;3.30;;;;;30.50;101728.00;;;;10460422;28;20194;-76
2021/07/18 16:05:43;;;;;;;3.83;3.13;;;;;29.80;101724.00;;;;10425620;28;20210;-76
2021/07/18 16:10:45;;;;;;;5.10;3.30;;;;;29.10;101729.00;;;;10425827;28;20194;-76
2021/07/18 16:15:47;;;;;;;3.53;3.13;;;;;29.00;101722.00;;;;10441672;28;20197;-76
2021/07/18 16:20:50;;;;;;;5.00;3.10;;;;;28.70;101710.00;;;;10459067;28;20209;-76
2021/07/18 16:25:52;;;;;;;4.35;3.13;;;;;28.80;101712.00;;;;10431093;28;20214;-76
2021/07/18 16:30:55;;;;;;;6.15;3.03;;;;;28.40;101716.00;;;;10441080;28;20695;-76
2021/07/18 16:35:57;;;;;;;4.00;3.33;;;;;28.10;101713.00;;;;10458258;28;20203;-76
2021/07/18 16:40:59;;;;;;;3.75;3.05;;;;;27.90;101712.00;;;;10423767;28;20201;-76
2021/07/18 16:46:01;;;;;;;4.68;3.05;;;;;27.80;101707.00;;;;10407870;28;20210;-76
2021/07/18 16:51:03;;;;;;;6.03;3.47;;;;;27.60;101702.00;;;;10423835;28;20201;-76
2021/07/18 16:56:06;;;;;;;5.97;3.25;;;;;27.60;101711.00;;;;10456044;28;20201;-76
2021/07/18 17:01:09;;;;;;;5.25;3.47;;;;;27.50;101701.00;;;;10463887;28;20185;-76
2021/07/18 17:06:11;;;;;;;4.20;2.78;;;;;27.40;101697.00;;;;10423137;28;20202;-76
2021/07/18 17:11:14;;;;;;;4.47;3.50;;;;;27.20;101699.00;;;;10422916;28;20911;-76
2021/07/18 17:16:16;;;;;;;3.60;3.25;;;;;27.00;101704.00;;;;10439021;28;20182;-76
2021/07/18 17:21:19;;;;;;;3.33;3.03;;;;;26.90;101716.00;;;;10422485;28;20255;-76
2021/07/18 17:26:21;;;;;;;3.83;3.10;;;;;26.80;101705.00;;;;10457182;28;20206;-76
2021/07/18 17:31:23;;;;;;;7.00;3.22;;;;;26.70;101702.00;;;;10438289;28;20244;-76
2021/07/18 17:36:25;;;;;;;5.97;3.97;;;;;26.60;101713.00;;;;10438789;28;20206;-76
2021/07/18 17:41:27;;;;;;;5.05;3.17;;;;;26.50;101711.00;;;;10431704;28;20190;-76
2021/07/18 17:46:29;;;;;;;4.85;3.33;;;;;26.40;101707.00;;;;10449908;28;20201;-76
2021/07/18 17:51:31;;;;;;;6.18;4.00;;;;;26.40;101719.00;;;;10497132;28;20204;-76
2021/07/18 17:56:33;;;;;;;5.03;3.45;;;;;26.30;101715.00;;;;10438074;28;20213;-76
2021/07/18 18:01:36;;;;;;;4.32;3.58;;;;;26.20;101718.00;;;;10421825;28;20240;-76
2021/07/18 18:06:40;;;;;;;3.97;3.58;;;;;26.00;101716.00;;;;10455955;28;20210;-76
2021/07/18 18:11:41;;;;;;;4.95;3.67;;;;;25.80;101717.00;;;;10421719;28;20213;-76
2021/07/18 18:16:44;;;;;;;3.85;3.42;;;;;25.60;101720.00;;;;10457408;28;20190;-76
2021/07/18 18:21:46;;;;;;;4.15;3.63;;;;;25.50;101723.00;;;;10462285;28;20205;-76
2021/07/18 18:26:48;;;;;;;3.78;3.20;;;;;25.40;101718.00;;;;10502372;28;20209;-75
2021/07/18 18:31:50;;;;;;;6.10;3.83;;;;;25.30;101721.00;;;;10503205;28;20246;-75
2021/07/18 18:36:52;;;;;;;5.63;3.58;;;;;25.20;101715.00;;;;10520232;28;20656;-75
2021/07/18 18:41:54;;;;;;;5.28;3.42;;;;;25.00;101715.00;;;;10513268;28;20194;-76
2021/07/18 18:46:56;;;;;;;5.45;3.40;;;;;24.80;101719.00;;;;10503192;28;20301;-76
2021/07/18 18:51:58;;;;;;;9.00;4.00;;;;;24.70;101722.00;;;;10486368;28;20280;-76
2021/07/18 18:57:00;;;;;;;7.35;3.92;;;;;24.50;101723.00;;;;10485671;28;20181;-76
2021/07/18 19:02:03;;;;;;;5.22;3.38;;;;;24.40;101721.00;;;;10468730;28;20240;-75
2021/07/18 19:07:05;;;;;;;5.40;3.65;;;;;24.20;101724.00;;;;10485743;28;20197;-76
2021/07/18 19:12:08;;;;;;;3.80;3.40;;;;;24.00;101726.00;;;;10468349;28;20190;-76
2021/07/18 19:17:10;;;;;;;3.63;3.30;;;;;23.80;101728.00;;;;10484649;28;20189;-76
2021/07/18 19:22:12;;;;;;;4.47;3.70;;;;;23.70;101721.00;;;;10502295;28;20218;-76
2021/07/18 19:27:14;;;;;;;5.43;3.60;;;;;23.60;101726.00;;;;10443184;28;20210;-75
2021/07/18 19:32:16;;;;;;;3.83;3.30;;;;;23.40;101728.00;;;;10426538;28;20304;-75
2021/07/18 19:37:19;;;;;;;5.40;3.72;;;;;23.20;101736.00;;;;10443027;28;20646;-75
2021/07/18 19:42:23;;;;;;;5.15;3.53;;;;;23.00;101744.00;;;;10426078;28;20194;-75
2021/07/18 19:47:25;;;;;;;4.63;3.40;;;;;22.80;101747.00;;;;10442589;28;20267;-76
2021/07/18 19:52:28;;;;;;;6.32;3.90;;;;;22.70;101750.00;;;;10429929;28;20541;-76
2021/07/18 19:57:30;;;;;;;4.43;4.03;;;;;22.50;101758.00;;;;10458475;28;20187;-76
2021/07/18 20:02:32;;;;;;;5.80;3.70;;;;;22.30;101762.00;;;;10425450;28;20183;-75
2021/07/18 20:07:34;;;;;;;4.28;3.88;;;;;22.10;101764.00;;;;10425353;28;20264;-75
2021/07/18 20:12:36;;;;;;;4.88;3.75;;;;;21.90;101770.00;;;;10441539;28;20194;-76
2021/07/18 20:17:39;;;;;;;4.75;3.70;;;;;21.70;101772.00;;;;10441335;28;20236;-76
2021/07/18 20:22:42;;;;;;;4.07;3.47;;;;;21.60;101775.00;;;;10424390;28;20202;-75
2021/07/18 20:27:44;;;;;;;6.40;3.78;;;;;21.50;101781.00;;;;10424654;28;20210;-76
2021/07/18 20:32:46;;;;;;;6.68;3.78;;;;;21.30;101786.00;;;;10424107;28;20217;-76
2021/07/18 20:37:48;;;;;;;5.93;4.20;;;;;21.20;101786.00;;;;10408026;28;20189;-75
2021/07/18 20:42:50;;;;;;;4.95;3.80;;;;;21.10;101790.00;;;;10407643;28;20680;-75
2021/07/18 20:47:52;;;;;;;5.05;4.10;;;;;21.00;101789.00;;;;10423715;28;20198;-75
2021/07/18 20:52:54;;;;;;;4.95;4.00;;;;;20.90;101789.00;;;;10449677;28;20645;-75
2021/07/18 20:57:56;;;;;;;6.88;4.18;;;;;20.80;101788.00;;;;10432560;28;20197;-76
2021/07/18 21:02:58;;;;;;;4.57;3.60;;;;;20.60;101792.00;;;;10464668;28;20197;-75
2021/07/18 21:08:00;;;;;;;6.43;4.65;;;;;20.50;101787.00;;;;10446496;28;20205;-74
2021/07/18 21:13:02;;;;;;;4.40;4.00;;;;;20.40;101783.00;;;;10480646;28;20189;-75
2021/07/18 21:18:04;;;;;;;3.88;3.58;;;;;20.30;101787.00;;;;10447501;28;20193;-75
2021/07/18 21:23:06;;;;;;;6.93;4.13;;;;;20.20;101785.00;;;;10472298;28;20241;-75
2021/07/18 21:28:08;;;;;;;4.22;3.47;;;;;20.10;101787.00;;;;10438852;28;20657;-76
2021/07/18 21:33:10;;;;;;;3.95;3.63;;;;;20.00;101789.00;;;;10422492;28;20202;-75
2021/07/18 21:38:12;;;;;;;4.22;3.70;;;;;19.90;101785.00;;;;10421954;28;20185;-75
2021/07/18 21:43:14;;;;;;;5.93;3.90;;;;;19.80;101787.00;;;;10422251;28;20202;-75
2021/07/18 21:48:16;;;;;;;6.43;4.68;;;;;19.70;101787.00;;;;10438010;28;20306;-75
2021/07/18 21:53:18;;;;;;;4.03;3.63;;;;;19.60;101790.00;;;;10431062;28;20237;-75
2021/07/18 21:58:20;;;;;;;5.95;4.82;;;;;19.40;101796.00;;;;10421184;28;20194;-75
2021/07/18 22:03:35;;;;;;;4.97;3.85;;;;;19.30;101799.00;;;;10437230;28;20853;-75
2021/07/18 22:08:37;;;;;;;4.53;4.03;;;;;19.20;101792.00;;;;10437717;28;20206;-75
2021/07/18 22:13:39;;;;;;;5.10;4.10;;;;;19.10;101790.00;;;;10454050;28;20186;-75
2021/07/18 22:18:42;;;;;;;6.72;4.78;;;;;19.00;101785.00;;;;10441827;28;20174;-75
2021/07/18 22:23:44;;;;;;;7.28;4.03;;;;;18.90;101788.00;;;;10442774;28;20690;-75
2021/07/18 22:28:46;;;;;;;6.40;3.83;;;;;18.70;101786.00;;;;10470239;28;20209;-75
2021/07/18 22:33:48;;;;;;;5.55;4.22;;;;;18.50;101780.00;;;;10470287;28;20275;-75
2021/07/18 22:38:50;;;;;;;10.43;4.95;;;;;18.40;101782.00;;;;10470050;28;20181;-75
2021/07/18 22:43:52;;;;;;;5.35;4.85;;;;;18.20;101780.00;;;;10453156;28;20193;-75
2021/07/18 22:48:54;;;;;;;5.47;4.53;;;;;18.10;101781.00;;;;10485886;28;20259;-75
2021/07/18 22:53:55;;;;;;;5.28;4.40;;;;;18.00;101777.00;;;;10471541;28;20665;-75
2021/07/18 22:58:57;;;;;;;7.13;4.72;;;;;17.90;101775.00;;;;10428764;28;20758;-75
2021/07/18 23:03:59;;;;;;;5.90;4.22;;;;;17.80;101774.00;;;;10494935;28;20914;-75
2021/07/18 23:09:01;;;;;;;5.47;4.97;;;;;17.70;101763.00;;;;10510436;28;20215;-75
2021/07/18 23:14:03;;;;;;;5.20;4.65;;;;;17.60;101761.00;;;;10493793;28;20268;-75
2021/07/18 23:19:05;;;;;;;9.00;5.50;;;;;17.50;101765.00;;;;10526778;28;20193;-75
2021/07/18 23:24:07;;;;;;;6.95;5.10;;;;;17.50;101773.00;;;;10510262;28;20206;-75
2021/07/18 23:29:09;;;;;;;6.00;5.40;;;;;17.50;101772.00;;;;10483228;28;20225;-75
2021/07/18 23:34:11;;;;;;;5.73;5.23;;;;;17.40;101769.00;;;;10467979;28;20217;-75
2021/07/18 23:39:13;;;;;;;9.40;5.63;;;;;17.40;101767.00;;;;10484034;28;20200;-75
2021/07/18 23:44:15;;;;;;;7.18;5.63;;;;;17.20;101767.00;;;;10450862;28;20205;-75
2021/07/18 23:49:17;;;;;;;7.63;5.50;;;;;17.10;101755.00;;;;10467377;28;20245;-75
2021/07/18 23:54:19;;;;;;;11.10;6.70;;;;;17.00;101756.00;;;;10416640;28;20198;-75
2021/07/18 23:59:21;;;;;;;8.57;6.35;;;;;17.00;101750.00;;;;10442157;28;20210;-74
